sensor_id;sensor_type;location;lat;lon;timestamp;pressure;altitude;pressure_sealevel;temperature
69857;BMP280;57147;53.582;10.112;2023-04-15T00:05:01;100841.19;;;5.77
69857;BMP280;57147;53.582;10.112;2023-04-15T00:10:03;100885.63;;;5.95
69857;BMP280;57147;53.582;10.112;2023-04-15T00:15:05;100879.84;;;5.98
69857;BMP280;57147;53.582;10.112;2023-04-15T00:20:09;100907.34;;;6.12
69857;BMP280;57147;53.582;10.112;2023-04-15T00:25:10;100896.16;;;5.95
69857;BMP280;57147;53.582;10.112;2023-04-15T00:30:10;100920.41;;;5.97
69857;BMP280;57147;53.582;10.112;2023-04-15T00:35:14;100972.09;;;6.03
69857;BMP280;57147;53.582;10.112;2023-04-15T00:40:16;101001.56;;;5.95
69857;BMP280;57147;53.582;10.112;2023-04-15T00:45:17;101106.25;;;5.78
69857;BMP280;57147;53.582;10.112;2023-04-15T00:50:21;101151.56;;;5.75
69857;BMP280;57147;53.582;10.112;2023-04-15T00:55:22;101344.75;;;5.97
69857;BMP280;57147;53.582;10.112;2023-04-15T01:00:22;101373.81;;;6.02
69857;BMP280;57147;53.582;10.112;2023-04-15T01:05:27;101422.25;;;5.96
69857;BMP280;57147;53.582;10.112;2023-04-15T01:10:27;101412.56;;;5.85
69857;BMP280;57147;53.582;10.112;2023-04-15T01:15:28;101491.69;;;5.90
69857;BMP280;57147;53.582;10.112;2023-04-15T01:20:33;101543.38;;;5.91
69857;BMP280;57147;53.582;10.112;2023-04-15T01:25:36;101536.44;;;5.85
69857;BMP280;57147;53.582;10.112;2023-04-15T01:30:37;101896.81;;;5.78
69857;BMP280;57147;53.582;10.112;2023-04-15T01:35:37;101875.75;;;6.01
69857;BMP280;57147;53.582;10.112;2023-04-15T01:40:41;101838.84;;;5.90
69857;BMP280;57147;53.582;10.112;2023-04-15T01:45:41;101834.25;;;5.85
69857;BMP280;57147;53.582;10.112;2023-04-15T01:50:42;101840.78;;;5.83
69857;BMP280;57147;53.582;10.112;2023-04-15T01:55:45;101830.38;;;5.99
69857;BMP280;57147;53.582;10.112;2023-04-15T02:00:46;101812.03;;;5.93
69857;BMP280;57147;53.582;10.112;2023-04-15T02:05:46;101789.78;;;6.00
69857;BMP280;57147;53.582;10.112;2023-04-15T02:10:55;101837.00;;;5.90
69857;BMP280;57147;53.582;10.112;2023-04-15T02:16:04;101817.75;;;6.01
69857;BMP280;57147;53.582;10.112;2023-04-15T02:21:14;101841.16;;;6.09
69857;BMP280;57147;53.582;10.112;2023-04-15T02:26:17;101857.88;;;6.03
69857;BMP280;57147;53.582;10.112;2023-04-15T02:31:18;101858.66;;;6.16
69857;BMP280;57147;53.582;10.112;2023-04-15T02:36:18;101850.09;;;6.08
69857;BMP280;57147;53.582;10.112;2023-04-15T02:41:21;101837.72;;;5.97
69857;BMP280;57147;53.582;10.112;2023-04-15T02:46:22;101849.06;;;6.09
69857;BMP280;57147;53.582;10.112;2023-04-15T02:51:23;101877.59;;;6.12
69857;BMP280;57147;53.582;10.112;2023-04-15T02:56:26;101854.19;;;5.81
69857;BMP280;57147;53.582;10.112;2023-04-15T03:01:27;101903.72;;;6.26
69857;BMP280;57147;53.582;10.112;2023-04-15T03:06:27;101908.47;;;6.24
69857;BMP280;57147;53.582;10.112;2023-04-15T03:11:31;101911.41;;;6.27
69857;BMP280;57147;53.582;10.112;2023-04-15T03:16:32;101922.31;;;6.31
69857;BMP280;57147;53.582;10.112;2023-04-15T03:21:32;101909.13;;;6.31
69857;BMP280;57147;53.582;10.112;2023-04-15T03:26:35;101884.94;;;6.34
69857;BMP280;57147;53.582;10.112;2023-04-15T03:31:36;101869.78;;;6.41
69857;BMP280;57147;53.582;10.112;2023-04-15T03:36:37;101864.75;;;6.28
69857;BMP280;57147;53.582;10.112;2023-04-15T03:41:40;101892.94;;;6.39
69857;BMP280;57147;53.582;10.112;2023-04-15T03:46:40;101875.88;;;6.30
69857;BMP280;57147;53.582;10.112;2023-04-15T03:51:41;101874.25;;;6.40
69857;BMP280;57147;53.582;10.112;2023-04-15T03:56:44;101875.06;;;6.41
69857;BMP280;57147;53.582;10.112;2023-04-15T04:01:45;101877.03;;;6.34
69857;BMP280;57147;53.582;10.112;2023-04-15T04:06:46;101874.03;;;6.30
69857;BMP280;57147;53.582;10.112;2023-04-15T04:11:49;101882.84;;;6.36
69857;BMP280;57147;53.582;10.112;2023-04-15T04:16:49;101877.72;;;6.29
69857;BMP280;57147;53.582;10.112;2023-04-15T04:21:51;101877.00;;;6.45
69857;BMP280;57147;53.582;10.112;2023-04-15T04:26:54;101884.22;;;6.50
69857;BMP280;57147;53.582;10.112;2023-04-15T04:31:55;101868.53;;;6.32
69857;BMP280;57147;53.582;10.112;2023-04-15T04:36:56;101872.19;;;6.42
69857;BMP280;57147;53.582;10.112;2023-04-15T04:41:59;101866.13;;;6.42
69857;BMP280;57147;53.582;10.112;2023-04-15T04:47:00;101856.22;;;6.49
69857;BMP280;57147;53.582;10.112;2023-04-15T04:52:00;101849.94;;;6.38
69857;BMP280;57147;53.582;10.112;2023-04-15T04:57:03;101850.94;;;6.49
69857;BMP280;57147;53.582;10.112;2023-04-15T05:02:04;101855.09;;;6.45
69857;BMP280;57147;53.582;10.112;2023-04-15T05:07:05;101846.00;;;6.53
69857;BMP280;57147;53.582;10.112;2023-04-15T05:12:08;101840.59;;;6.59
69857;BMP280;57147;53.582;10.112;2023-04-15T05:17:09;101851.31;;;6.69
69857;BMP280;57147;53.582;10.112;2023-04-15T05:22:10;101844.94;;;6.65
69857;BMP280;57147;53.582;10.112;2023-04-15T05:27:13;101797.19;;;6.67
69857;BMP280;57147;53.582;10.112;2023-04-15T05:32:13;101760.19;;;6.78
69857;BMP280;57147;53.582;10.112;2023-04-15T05:37:14;101708.50;;;6.66
69857;BMP280;57147;53.582;10.112;2023-04-15T05:42:17;101650.19;;;6.67
69857;BMP280;57147;53.582;10.112;2023-04-15T05:47:18;101628.53;;;6.65
69857;BMP280;57147;53.582;10.112;2023-04-15T05:52:19;101621.41;;;6.82
69857;BMP280;57147;53.582;10.112;2023-04-15T05:57:22;101658.09;;;7.01
69857;BMP280;57147;53.582;10.112;2023-04-15T06:02:23;101675.47;;;6.97
69857;BMP280;57147;53.582;10.112;2023-04-15T06:07:24;101591.72;;;6.75
69857;BMP280;57147;53.582;10.112;2023-04-15T06:12:27;101587.72;;;6.90
69857;BMP280;57147;53.582;10.112;2023-04-15T06:17:28;101571.38;;;6.93
69857;BMP280;57147;53.582;10.112;2023-04-15T06:22:28;101594.66;;;6.96
69857;BMP280;57147;53.582;10.112;2023-04-15T06:27:32;101587.06;;;6.99
69857;BMP280;57147;53.582;10.112;2023-04-15T06:32:33;101577.47;;;6.93
69857;BMP280;57147;53.582;10.112;2023-04-15T06:37:34;101595.50;;;7.18
69857;BMP280;57147;53.582;10.112;2023-04-15T06:42:38;101593.59;;;7.13
69857;BMP280;57147;53.582;10.112;2023-04-15T06:47:38;101513.09;;;7.16
69857;BMP280;57147;53.582;10.112;2023-04-15T06:52:39;101472.97;;;7.19
69857;BMP280;57147;53.582;10.112;2023-04-15T06:57:42;101418.91;;;7.27
69857;BMP280;57147;53.582;10.112;2023-04-15T07:02:43;101334.72;;;7.35
69857;BMP280;57147;53.582;10.112;2023-04-15T07:07:43;101189.41;;;7.30
69857;BMP280;57147;53.582;10.112;2023-04-15T07:12:47;101064.78;;;7.43
69857;BMP280;57147;53.582;10.112;2023-04-15T07:17:47;101022.69;;;7.16
69857;BMP280;57147;53.582;10.112;2023-04-15T07:22:48;101076.34;;;7.27
69857;BMP280;57147;53.582;10.112;2023-04-15T07:27:51;101103.56;;;7.33
69857;BMP280;57147;53.582;10.112;2023-04-15T07:32:53;101118.38;;;7.34
69857;BMP280;57147;53.582;10.112;2023-04-15T07:37:53;101091.69;;;7.30
69857;BMP280;57147;53.582;10.112;2023-04-15T07:42:57;101099.63;;;7.35
69857;BMP280;57147;53.582;10.112;2023-04-15T07:47:58;101111.28;;;7.39
69857;BMP280;57147;53.582;10.112;2023-04-15T07:52:58;101100.72;;;7.49
69857;BMP280;57147;53.582;10.112;2023-04-15T07:58:01;101066.66;;;7.58
69857;BMP280;57147;53.582;10.112;2023-04-15T08:03:02;100966.81;;;7.80
69857;BMP280;57147;53.582;10.112;2023-04-15T08:08:03;100924.78;;;7.89
69857;BMP280;57147;53.582;10.112;2023-04-15T08:13:06;100905.69;;;8.27
69857;BMP280;57147;53.582;10.112;2023-04-15T08:18:07;100870.38;;;8.52
69857;BMP280;57147;53.582;10.112;2023-04-15T08:23:07;100809.25;;;8.54
69857;BMP280;57147;53.582;10.112;2023-04-15T08:28:11;100837.38;;;8.89
69857;BMP280;57147;53.582;10.112;2023-04-15T08:33:11;100823.25;;;9.03
69857;BMP280;57147;53.582;10.112;2023-04-15T08:38:12;100788.06;;;9.27
69857;BMP280;57147;53.582;10.112;2023-04-15T08:43:20;100784.56;;;9.60
69857;BMP280;57147;53.582;10.112;2023-04-15T08:48:23;100774.25;;;9.30
69857;BMP280;57147;53.582;10.112;2023-04-15T08:53:27;100788.56;;;9.29
69857;BMP280;57147;53.582;10.112;2023-04-15T08:58:33;100780.78;;;9.13
69857;BMP280;57147;53.582;10.112;2023-04-15T09:03:35;100776.78;;;9.69
69857;BMP280;57147;53.582;10.112;2023-04-15T09:08:36;100774.41;;;9.67
69857;BMP280;57147;53.582;10.112;2023-04-15T09:13:39;100794.06;;;10.09
69857;BMP280;57147;53.582;10.112;2023-04-15T09:18:40;100755.63;;;10.62
69857;BMP280;57147;53.582;10.112;2023-04-15T09:23:53;100773.41;;;10.81
69857;BMP280;57147;53.582;10.112;2023-04-15T09:29:02;100784.03;;;10.94
69857;BMP280;57147;53.582;10.112;2023-04-15T09:34:04;100785.22;;;11.62
69857;BMP280;57147;53.582;10.112;2023-04-15T09:39:04;100793.91;;;12.53
69857;BMP280;57147;53.582;10.112;2023-04-15T09:44:23;100822.59;;;13.00
69857;BMP280;57147;53.582;10.112;2023-04-15T09:49:24;100835.03;;;13.13
69857;BMP280;57147;53.582;10.112;2023-04-15T09:54:32;100852.94;;;13.52
69857;BMP280;57147;53.582;10.112;2023-04-15T09:59:35;100825.16;;;13.45
69857;BMP280;57147;53.582;10.112;2023-04-15T10:04:40;100863.47;;;13.66
69857;BMP280;57147;53.582;10.112;2023-04-15T10:09:42;100875.06;;;13.53
69857;BMP280;57147;53.582;10.112;2023-04-15T10:14:50;100857.19;;;13.62
69857;BMP280;57147;53.582;10.112;2023-04-15T10:19:53;100859.69;;;14.41
69857;BMP280;57147;53.582;10.112;2023-04-15T10:24:55;100848.41;;;14.27
69857;BMP280;57147;53.582;10.112;2023-04-15T10:30:00;100909.66;;;14.40
69857;BMP280;57147;53.582;10.112;2023-04-15T10:35:01;100907.97;;;14.36
69857;BMP280;57147;53.582;10.112;2023-04-15T10:40:24;100910.91;;;13.69
69857;BMP280;57147;53.582;10.112;2023-04-15T10:45:32;100899.47;;;14.34
69857;BMP280;57147;53.582;10.112;2023-04-15T10:50:33;100903.22;;;14.50
69857;BMP280;57147;53.582;10.112;2023-04-15T10:55:34;100919.22;;;15.19
69857;BMP280;57147;53.582;10.112;2023-04-15T11:00:37;100943.00;;;15.58
69857;BMP280;57147;53.582;10.112;2023-04-15T11:05:51;100930.00;;;15.40
69857;BMP280;57147;53.582;10.112;2023-04-15T11:10:52;100959.53;;;14.97
69857;BMP280;57147;53.582;10.112;2023-04-15T11:16:00;100951.63;;;14.57
69857;BMP280;57147;53.582;10.112;2023-04-15T11:21:03;100961.47;;;14.05
69857;BMP280;57147;53.582;10.112;2023-04-15T11:26:07;100966.72;;;14.36
69857;BMP280;57147;53.582;10.112;2023-04-15T11:31:12;100978.03;;;14.50
69857;BMP280;57147;53.582;10.112;2023-04-15T11:36:13;100966.28;;;13.94
69857;BMP280;57147;53.582;10.112;2023-04-15T11:41:13;100961.63;;;13.78
69857;BMP280;57147;53.582;10.112;2023-04-15T11:46:17;100985.84;;;14.21
69857;BMP280;57147;53.582;10.112;2023-04-15T11:51:18;100996.59;;;15.24
69857;BMP280;57147;53.582;10.112;2023-04-15T11:56:20;100976.28;;;15.40
69857;BMP280;57147;53.582;10.112;2023-04-15T12:01:30;100999.78;;;14.92
69857;BMP280;57147;53.582;10.112;2023-04-15T12:06:31;101016.44;;;14.88
69857;BMP280;57147;53.582;10.112;2023-04-15T12:11:35;101020.25;;;14.87
69857;BMP280;57147;53.582;10.112;2023-04-15T12:16:40;101025.78;;;14.34
69857;BMP280;57147;53.582;10.112;2023-04-15T12:21:45;101024.84;;;14.39
69857;BMP280;57147;53.582;10.112;2023-04-15T12:26:48;101038.38;;;14.51
69857;BMP280;57147;53.582;10.112;2023-04-15T12:31:53;101043.84;;;14.37
69857;BMP280;57147;53.582;10.112;2023-04-15T12:36:53;101043.56;;;14.48
69857;BMP280;57147;53.582;10.112;2023-04-15T12:41:54;101043.22;;;14.40
69857;BMP280;57147;53.582;10.112;2023-04-15T12:46:59;101069.03;;;14.36
69857;BMP280;57147;53.582;10.112;2023-04-15T12:52:01;101067.38;;;14.75
69857;BMP280;57147;53.582;10.112;2023-04-15T12:57:05;101055.84;;;14.57
69857;BMP280;57147;53.582;10.112;2023-04-15T13:02:09;101077.31;;;15.26
69857;BMP280;57147;53.582;10.112;2023-04-15T13:07:09;101070.84;;;14.75
69857;BMP280;57147;53.582;10.112;2023-04-15T13:12:10;101085.31;;;14.83
69857;BMP280;57147;53.582;10.112;2023-04-15T13:17:14;101074.28;;;14.67
69857;BMP280;57147;53.582;10.112;2023-04-15T13:22:15;101077.97;;;15.06
69857;BMP280;57147;53.582;10.112;2023-04-15T13:27:15;101101.72;;;15.07
69857;BMP280;57147;53.582;10.112;2023-04-15T13:32:18;101108.16;;;15.23
69857;BMP280;57147;53.582;10.112;2023-04-15T13:37:19;101107.06;;;15.50
69857;BMP280;57147;53.582;10.112;2023-04-15T13:42:20;101115.06;;;15.67
69857;BMP280;57147;53.582;10.112;2023-04-15T13:47:23;101109.94;;;16.09
69857;BMP280;57147;53.582;10.112;2023-04-15T13:52:33;101111.13;;;15.56
69857;BMP280;57147;53.582;10.112;2023-04-15T13:57:35;101121.66;;;15.61
69857;BMP280;57147;53.582;10.112;2023-04-15T14:08:10;101128.16;;;15.60
69857;BMP280;57147;53.582;10.112;2023-04-15T14:13:10;101142.25;;;16.04
69857;BMP280;57147;53.582;10.112;2023-04-15T14:18:12;101148.72;;;15.94
69857;BMP280;57147;53.582;10.112;2023-04-15T14:23:16;101142.88;;;16.09
69857;BMP280;57147;53.582;10.112;2023-04-15T14:28:18;101156.50;;;16.63
69857;BMP280;57147;53.582;10.112;2023-04-15T14:33:20;101165.34;;;16.26
69857;BMP280;57147;53.582;10.112;2023-04-15T14:38:29;101172.97;;;15.98
69857;BMP280;57147;53.582;10.112;2023-04-15T14:43:30;101179.78;;;16.80
69857;BMP280;57147;53.582;10.112;2023-04-15T14:48:31;101181.72;;;17.74
69857;BMP280;57147;53.582;10.112;2023-04-15T14:53:38;101188.75;;;17.67
69857;BMP280;57147;53.582;10.112;2023-04-15T14:58:41;101190.44;;;17.50
69857;BMP280;57147;53.582;10.112;2023-04-15T15:03:42;101196.59;;;16.89
69857;BMP280;57147;53.582;10.112;2023-04-15T15:08:46;101210.81;;;15.70
69857;BMP280;57147;53.582;10.112;2023-04-15T15:13:50;101216.16;;;15.53
69857;BMP280;57147;53.582;10.112;2023-04-15T15:18:50;101222.91;;;15.42
69857;BMP280;57147;53.582;10.112;2023-04-15T15:23:54;101226.66;;;15.15
69857;BMP280;57147;53.582;10.112;2023-04-15T15:28:54;101207.78;;;15.29
69857;BMP280;57147;53.582;10.112;2023-04-15T15:33:55;101229.31;;;15.15
69857;BMP280;57147;53.582;10.112;2023-04-15T15:38:59;101227.13;;;15.17
69857;BMP280;57147;53.582;10.112;2023-04-15T15:43:59;101236.03;;;14.96
69857;BMP280;57147;53.582;10.112;2023-04-15T15:49:01;101214.31;;;14.58
69857;BMP280;57147;53.582;10.112;2023-04-15T15:54:04;101257.88;;;14.14
69857;BMP280;57147;53.582;10.112;2023-04-15T15:59:05;101264.19;;;13.18
69857;BMP280;57147;53.582;10.112;2023-04-15T16:04:06;101268.00;;;12.99
69857;BMP280;57147;53.582;10.112;2023-04-15T16:09:09;101245.91;;;12.66
69857;BMP280;57147;53.582;10.112;2023-04-15T16:14:10;101252.66;;;12.63
69857;BMP280;57147;53.582;10.112;2023-04-15T16:19:11;101269.59;;;12.54
69857;BMP280;57147;53.582;10.112;2023-04-15T16:24:14;101243.69;;;12.41
69857;BMP280;57147;53.582;10.112;2023-04-15T16:29:15;101249.00;;;12.41
69857;BMP280;57147;53.582;10.112;2023-04-15T16:34:15;101265.00;;;12.03
69857;BMP280;57147;53.582;10.112;2023-04-15T16:39:19;101270.75;;;12.10
69857;BMP280;57147;53.582;10.112;2023-04-15T16:44:19;101277.31;;;12.18
69857;BMP280;57147;53.582;10.112;2023-04-15T16:49:20;101277.53;;;12.21
69857;BMP280;57147;53.582;10.112;2023-04-15T16:54:24;101279.97;;;11.99
69857;BMP280;57147;53.582;10.112;2023-04-15T16:59:25;101277.69;;;11.87
69857;BMP280;57147;53.582;10.112;2023-04-15T17:04:26;101285.75;;;11.82
69857;BMP280;57147;53.582;10.112;2023-04-15T17:09:29;101292.03;;;11.73
69857;BMP280;57147;53.582;10.112;2023-04-15T17:14:30;101282.28;;;11.63
69857;BMP280;57147;53.582;10.112;2023-04-15T17:19:31;101293.88;;;11.48
69857;BMP280;57147;53.582;10.112;2023-04-15T17:24:34;101293.78;;;11.59
69857;BMP280;57147;53.582;10.112;2023-04-15T17:29:35;101295.28;;;11.41
69857;BMP280;57147;53.582;10.112;2023-04-15T17:34:36;101302.84;;;11.29
69857;BMP280;57147;53.582;10.112;2023-04-15T17:39:39;101309.28;;;11.23
69857;BMP280;57147;53.582;10.112;2023-04-15T17:44:42;101304.31;;;11.16
69857;BMP280;57147;53.582;10.112;2023-04-15T17:49:42;101310.28;;;11.03
69857;BMP280;57147;53.582;10.112;2023-04-15T17:54:47;101317.69;;;10.72
69857;BMP280;57147;53.582;10.112;2023-04-15T17:59:47;101305.94;;;10.44
69857;BMP280;57147;53.582;10.112;2023-04-15T18:04:48;101285.31;;;10.26
69857;BMP280;57147;53.582;10.112;2023-04-15T18:09:53;101296.53;;;10.13
69857;BMP280;57147;53.582;10.112;2023-04-15T18:14:53;101305.13;;;9.95
69857;BMP280;57147;53.582;10.112;2023-04-15T18:19:54;101312.59;;;9.82
69857;BMP280;57147;53.582;10.112;2023-04-15T18:24:57;101333.81;;;9.72
69857;BMP280;57147;53.582;10.112;2023-04-15T18:35:28;101350.81;;;9.56
69857;BMP280;57147;53.582;10.112;2023-04-15T18:40:32;101361.16;;;9.42
69857;BMP280;57147;53.582;10.112;2023-04-15T18:45:32;101369.66;;;9.34
69857;BMP280;57147;53.582;10.112;2023-04-15T18:50:33;101330.19;;;8.97
69857;BMP280;57147;53.582;10.112;2023-04-15T18:55:38;101373.34;;;9.33
69857;BMP280;57147;53.582;10.112;2023-04-15T19:00:38;101377.06;;;9.42
69857;BMP280;57147;53.582;10.112;2023-04-15T19:05:39;101377.09;;;9.12
69857;BMP280;57147;53.582;10.112;2023-04-15T19:10:42;101383.41;;;8.96
69857;BMP280;57147;53.582;10.112;2023-04-15T19:15:45;101380.19;;;8.84
69857;BMP280;57147;53.582;10.112;2023-04-15T19:20:46;101384.69;;;8.83
69857;BMP280;57147;53.582;10.112;2023-04-15T19:25:49;101398.47;;;8.85
69857;BMP280;57147;53.582;10.112;2023-04-15T19:30:50;101418.63;;;8.91
69857;BMP280;57147;53.582;10.112;2023-04-15T19:35:50;101418.50;;;8.61
69857;BMP280;57147;53.582;10.112;2023-04-15T19:40:54;101439.75;;;8.71
69857;BMP280;57147;53.582;10.112;2023-04-15T19:45:54;101435.03;;;8.88
69857;BMP280;57147;53.582;10.112;2023-04-15T19:50:55;101430.16;;;8.65
69857;BMP280;57147;53.582;10.112;2023-04-15T19:55:59;101452.44;;;8.69
69857;BMP280;57147;53.582;10.112;2023-04-15T20:01:00;101457.34;;;8.45
69857;BMP280;57147;53.582;10.112;2023-04-15T20:06:01;101450.72;;;8.48
69857;BMP280;57147;53.582;10.112;2023-04-15T20:11:04;101445.50;;;8.58
69857;BMP280;57147;53.582;10.112;2023-04-15T20:16:04;101451.78;;;8.47
69857;BMP280;57147;53.582;10.112;2023-04-15T20:21:05;101430.03;;;8.34
69857;BMP280;57147;53.582;10.112;2023-04-15T20:26:08;101452.22;;;8.28
69857;BMP280;57147;53.582;10.112;2023-04-15T20:31:09;101458.06;;;8.25
69857;BMP280;57147;53.582;10.112;2023-04-15T20:36:10;101467.03;;;8.24
69857;BMP280;57147;53.582;10.112;2023-04-15T20:41:13;101468.00;;;8.13
69857;BMP280;57147;53.582;10.112;2023-04-15T20:46:14;101460.44;;;7.90
69857;BMP280;57147;53.582;10.112;2023-04-15T20:51:15;101477.81;;;7.81
69857;BMP280;57147;53.582;10.112;2023-04-15T20:56:18;101477.09;;;7.63
69857;BMP280;57147;53.582;10.112;2023-04-15T21:01:19;101474.59;;;7.52
69857;BMP280;57147;53.582;10.112;2023-04-15T21:06:20;101452.00;;;7.34
69857;BMP280;57147;53.582;10.112;2023-04-15T21:11:23;101473.66;;;7.31
69857;BMP280;57147;53.582;10.112;2023-04-15T21:16:24;101490.59;;;7.35
69857;BMP280;57147;53.582;10.112;2023-04-15T21:21:25;101488.19;;;7.34
69857;BMP280;57147;53.582;10.112;2023-04-15T21:26:28;101497.03;;;7.44
69857;BMP280;57147;53.582;10.112;2023-04-15T21:31:29;101500.72;;;7.43
69857;BMP280;57147;53.582;10.112;2023-04-15T21:36:29;101504.94;;;7.44
69857;BMP280;57147;53.582;10.112;2023-04-15T21:41:32;101498.34;;;7.42
69857;BMP280;57147;53.582;10.112;2023-04-15T21:46:33;101510.75;;;7.41
69857;BMP280;57147;53.582;10.112;2023-04-15T21:51:34;101515.50;;;7.44
69857;BMP280;57147;53.582;10.112;2023-04-15T21:56:37;101502.75;;;7.36
69857;BMP280;57147;53.582;10.112;2023-04-15T22:01:38;101524.47;;;7.43
69857;BMP280;57147;53.582;10.112;2023-04-15T22:06:38;101530.84;;;7.47
69857;BMP280;57147;53.582;10.112;2023-04-15T22:11:41;101517.88;;;7.41
69857;BMP280;57147;53.582;10.112;2023-04-15T22:16:42;101529.84;;;7.27
69857;BMP280;57147;53.582;10.112;2023-04-15T22:21:42;101532.25;;;7.28
69857;BMP280;57147;53.582;10.112;2023-04-15T22:26:46;101533.28;;;7.27
69857;BMP280;57147;53.582;10.112;2023-04-15T22:31:47;101508.28;;;7.13
69857;BMP280;57147;53.582;10.112;2023-04-15T22:36:48;101540.72;;;7.30
69857;BMP280;57147;53.582;10.112;2023-04-15T22:41:51;101545.38;;;7.23
69857;BMP280;57147;53.582;10.112;2023-04-15T22:46:51;101543.78;;;7.22
69857;BMP280;57147;53.582;10.112;2023-04-15T22:51:52;101547.84;;;7.08
69857;BMP280;57147;53.582;10.112;2023-04-15T22:56:57;101559.94;;;7.04
69857;BMP280;57147;53.582;10.112;2023-04-15T23:01:58;101548.66;;;6.92
69857;BMP280;57147;53.582;10.112;2023-04-15T23:06:58;101570.72;;;7.02
69857;BMP280;57147;53.582;10.112;2023-04-15T23:12:01;101566.56;;;7.06
69857;BMP280;57147;53.582;10.112;2023-04-15T23:17:02;101579.53;;;7.08
69857;BMP280;57147;53.582;10.112;2023-04-15T23:22:03;101585.38;;;7.10
69857;BMP280;57147;53.582;10.112;2023-04-15T23:27:06;101577.38;;;7.05
69857;BMP280;57147;53.582;10.112;2023-04-15T23:32:07;101593.06;;;6.95
69857;BMP280;57147;53.582;10.112;2023-04-15T23:37:07;101550.75;;;6.51
69857;BMP280;57147;53.582;10.112;2023-04-15T23:42:11;101589.59;;;6.56
69857;BMP280;57147;53.582;10.112;2023-04-15T23:47:12;101593.19;;;6.49
69857;BMP280;57147;53.582;10.112;2023-04-15T23:52:12;101595.19;;;6.42
69857;BMP280;57147;53.582;10.112;2023-04-15T23:57:15;101600.53;;;6.31
